createdAt,value
2017-04-09T00:00:15.207Z,33.81
2017-04-09T00:01:15.162Z,33.81
2017-04-09T00:02:15.227Z,33.72
2017-04-09T00:03:14.914Z,33.8
2017-04-09T00:04:15.229Z,33.91
2017-04-09T00:05:15.187Z,33.81
2017-04-09T00:06:15.190Z,33.91
2017-04-09T00:07:15.210Z,33.91
2017-04-09T00:08:15.255Z,33.91
2017-04-09T00:09:15.265Z,33.91
2017-04-09T00:10:15.322Z,34
2017-04-09T00:11:15.226Z,33.72
2017-04-09T00:12:15.230Z,33.42
2017-04-09T00:13:15.241Z,33.42
2017-04-09T00:14:15.299Z,33.33
2017-04-09T00:15:15.261Z,33.52
2017-04-09T00:16:15.257Z,33.52
2017-04-09T00:17:15.320Z,33.42
2017-04-09T00:18:15.279Z,33.42
2017-04-09T00:19:15.273Z,33.52
2017-04-09T00:20:15.280Z,33.62
2017-04-09T00:21:15.291Z,33.52
2017-04-09T00:22:15.010Z,33.33
2017-04-09T00:23:15.299Z,33.52
2017-04-09T00:24:15.306Z,33.23
2017-04-09T00:25:15.414Z,33.42
2017-04-09T00:26:15.319Z,33.42
2017-04-09T00:27:15.381Z,33.04
2017-04-09T00:28:15.333Z,33.72
2017-04-09T00:29:15.346Z,33.22
2017-04-09T00:30:15.401Z,33.14
2017-04-09T00:31:15.708Z,33.42
2017-04-09T00:32:15.362Z,33.14
2017-04-09T00:33:15.367Z,33.33
2017-04-09T00:34:15.374Z,33.23
2017-04-09T00:35:15.432Z,32.94
2017-04-09T00:36:15.398Z,33.33
2017-04-09T00:37:15.395Z,33.23
2017-04-09T00:38:15.407Z,33.42
2017-04-09T00:39:15.409Z,33.42
2017-04-09T00:40:15.446Z,33.23
2017-04-09T00:41:15.471Z,32.94
2017-04-09T00:42:15.485Z,33.33
2017-04-09T00:43:15.430Z,33.42
2017-04-09T00:44:15.436Z,33.04
2017-04-09T00:45:15.492Z,33.33
2017-04-09T00:46:15.450Z,33.33
2017-04-09T00:47:15.505Z,33.04
2017-04-09T00:48:15.153Z,32.94
2017-04-09T00:49:15.527Z,33.23
2017-04-09T00:50:15.212Z,33.14
2017-04-09T00:51:15.493Z,33.14
2017-04-09T00:52:15.539Z,33.33
2017-04-09T00:53:15.545Z,33.23
2017-04-09T00:54:15.503Z,32.84
2017-04-09T00:55:15.505Z,32.75
2017-04-09T00:56:15.203Z,32.94
2017-04-09T00:57:15.529Z,32.75
2017-04-09T00:58:15.529Z,32.84
2017-04-09T00:59:15.592Z,32.84
2017-04-09T01:00:15.536Z,32.84
2017-04-09T01:01:15.544Z,32.75
2017-04-09T01:02:15.552Z,32.65
2017-04-09T01:03:15.566Z,32.75
2017-04-09T01:04:15.255Z,32.84
2017-04-09T01:05:15.674Z,32.84
2017-04-09T01:06:15.625Z,32.65
2017-04-09T01:07:15.638Z,32.65
2017-04-09T01:08:15.593Z,32.94
2017-04-09T01:09:15.598Z,32.94
2017-04-09T01:10:15.654Z,32.75
2017-04-09T01:11:15.614Z,32.56
2017-04-09T01:12:15.669Z,32.75
2017-04-09T01:13:15.630Z,32.75
2017-04-09T01:14:15.682Z,32.46
2017-04-09T01:15:15.316Z,32.56
2017-04-09T01:16:15.647Z,32.46
2017-04-09T01:17:15.659Z,32.65
2017-04-09T01:18:15.662Z,32.56
2017-04-09T01:19:15.351Z,32.65
2017-04-09T01:20:15.719Z,32.56
2017-04-09T01:21:15.719Z,32.46
2017-04-09T01:22:15.684Z,32.46
2017-04-09T01:23:15.682Z,32.56
2017-04-09T01:24:15.695Z,32.17
2017-04-09T01:25:15.751Z,32.65
2017-04-09T01:26:15.711Z,32.46
2017-04-09T01:27:15.815Z,32.56
2017-04-09T01:28:15.711Z,32.36
2017-04-09T01:29:15.720Z,32.36
2017-04-09T01:30:15.726Z,32.46
2017-04-09T01:31:15.739Z,32.36
2017-04-09T01:32:15.472Z,32.26
2017-04-09T01:33:15.796Z,32.26
2017-04-09T01:34:15.449Z,32.07
2017-04-09T01:35:15.806Z,32.17
2017-04-09T01:36:15.766Z,32.26
2017-04-09T01:37:15.775Z,32.17
2017-04-09T01:38:15.830Z,32.07
2017-04-09T01:39:15.780Z,32.17
2017-04-09T01:40:15.851Z,32.07
2017-04-09T01:41:15.835Z,32.17
2017-04-09T01:42:15.486Z,31.98
2017-04-09T01:43:15.804Z,32.17
2017-04-09T01:44:15.829Z,32.26
2017-04-09T01:45:15.568Z,32.17
2017-04-09T01:46:15.883Z,31.88
2017-04-09T01:47:15.838Z,32.17
2017-04-09T01:48:15.890Z,32.17
2017-04-09T01:49:15.897Z,32.17
2017-04-09T01:50:15.848Z,31.98
2017-04-09T01:51:15.864Z,31.98
2017-04-09T01:52:15.609Z,32.07
2017-04-09T01:53:15.878Z,32.07
2017-04-09T01:54:15.873Z,31.99
2017-04-09T01:55:15.665Z,31.8
2017-04-09T01:56:15.896Z,31.78
2017-04-09T01:57:15.899Z,31.98
2017-04-09T01:58:15.920Z,31.78
2017-04-09T01:59:15.905Z,31.78
2017-04-09T02:00:16.013Z,31.78
2017-04-09T02:01:15.654Z,31.78
2017-04-09T02:02:16.294Z,31.8
2017-04-09T02:03:15.621Z,31.8
2017-04-09T02:04:15.626Z,31.78
2017-04-09T02:05:15.947Z,31.78
2017-04-09T02:06:15.959Z,31.78
2017-04-09T02:07:16.011Z,31.88
2017-04-09T02:08:15.970Z,31.68
2017-04-09T02:09:16.032Z,31.59
2017-04-09T02:10:15.714Z,31.59
2017-04-09T02:11:15.987Z,31.98
2017-04-09T02:12:15.995Z,31.8
2017-04-09T02:13:16.048Z,31.78
2017-04-09T02:14:16.111Z,31.78
2017-04-09T02:15:16.046Z,31.68
2017-04-09T02:16:16.066Z,31.6
2017-04-09T02:17:16.025Z,31.49
2017-04-09T02:18:16.029Z,31.4
2017-04-09T02:19:16.092Z,31.7
2017-04-09T02:20:16.098Z,31.68
2017-04-09T02:21:16.099Z,31.31
2017-04-09T02:22:16.054Z,31.59
2017-04-09T02:23:16.145Z,31.3
2017-04-09T02:24:16.097Z,31.41
2017-04-09T02:25:16.088Z,31.41
2017-04-09T02:26:16.130Z,31.41
2017-04-09T02:27:16.137Z,31.41
2017-04-09T02:28:16.142Z,31.51
2017-04-09T02:29:16.152Z,31.41
2017-04-09T02:30:16.156Z,31.41
2017-04-09T02:31:16.170Z,31.6
2017-04-09T02:32:16.166Z,31.51
2017-04-09T02:33:16.168Z,31.6
2017-04-09T02:34:16.137Z,31.4
2017-04-09T02:35:16.142Z,31.41
2017-04-09T02:36:16.194Z,31.59
2017-04-09T02:37:16.150Z,31.49
2017-04-09T02:38:16.161Z,31.41
2017-04-09T02:39:16.222Z,31.3
2017-04-09T02:40:16.220Z,31.31
2017-04-09T02:41:16.234Z,31.2
2017-04-09T02:42:16.187Z,31.41
2017-04-09T02:43:16.198Z,31.31
2017-04-09T02:44:16.195Z,31.31
2017-04-09T02:45:16.252Z,31.31
2017-04-09T02:46:16.209Z,31.31
2017-04-09T02:47:16.263Z,31.41
2017-04-09T02:48:16.226Z,31.22
2017-04-09T02:49:16.236Z,31.22
2017-04-09T02:50:16.236Z,31.12
2017-04-09T02:51:16.240Z,31.12
2017-04-09T02:52:16.242Z,31.22
2017-04-09T02:53:15.943Z,31.22
2017-04-09T02:54:16.571Z,31.22
2017-04-09T02:55:16.267Z,31.22
2017-04-09T02:56:16.327Z,31.02
2017-04-09T02:57:16.327Z,30.93
2017-04-09T02:58:15.976Z,31.02
2017-04-09T02:59:16.299Z,31.22
2017-04-09T03:00:16.303Z,31.12
2017-04-09T03:01:16.354Z,31.22
2017-04-09T03:02:16.364Z,31.02
2017-04-09T03:03:16.367Z,30.93
2017-04-09T03:04:16.321Z,31.12
2017-04-09T03:05:16.382Z,30.83
2017-04-09T03:06:16.407Z,30.93
2017-04-09T03:07:16.353Z,31.12
2017-04-09T03:08:16.352Z,30.93
2017-04-09T03:09:16.361Z,31.12
2017-04-09T03:10:16.417Z,30.63
2017-04-09T03:11:16.366Z,30.73
2017-04-09T03:12:16.373Z,31.02
2017-04-09T03:13:16.378Z,31.02
2017-04-09T03:14:16.436Z,30.63
2017-04-09T03:15:16.403Z,30.54
2017-04-09T03:16:16.450Z,31.12
2017-04-09T03:17:16.406Z,30.93
2017-04-09T03:18:16.470Z,30.83
2017-04-09T03:19:16.424Z,30.83
2017-04-09T03:20:16.160Z,30.54
2017-04-09T03:21:16.115Z,30.83
2017-04-09T03:22:16.444Z,30.83
2017-04-09T03:23:16.495Z,30.93
2017-04-09T03:24:16.500Z,30.93
2017-04-09T03:25:16.520Z,30.83
2017-04-09T03:26:16.515Z,30.93
2017-04-09T03:27:16.518Z,30.44
2017-04-09T03:28:16.525Z,30.05
2017-04-09T03:29:16.167Z,30.63
2017-04-09T03:30:16.491Z,30.63
2017-04-09T03:31:16.184Z,30.73
2017-04-09T03:32:16.551Z,30.44
2017-04-09T03:33:16.200Z,30.63
2017-04-09T03:34:16.618Z,30.83
2017-04-09T03:35:16.521Z,30.44
2017-04-09T03:36:16.526Z,30.93
2017-04-09T03:37:16.532Z,30.83
2017-04-09T03:38:16.541Z,30.73
2017-04-09T03:39:16.595Z,30.44
2017-04-09T03:40:16.567Z,30.83
2017-04-09T03:41:16.306Z,30.93
2017-04-09T03:42:17.304Z,31.02
2017-04-09T03:43:17.434Z,30.35
2017-04-09T03:44:16.634Z,31.12
2017-04-09T03:45:16.590Z,30.44
2017-04-09T03:46:16.327Z,30.93
2017-04-09T03:47:16.599Z,30.73
2017-04-09T03:48:16.610Z,30.63
2017-04-09T03:49:16.298Z,30.73
2017-04-09T03:50:16.354Z,30.44
2017-04-09T03:51:16.625Z,30.73
2017-04-09T03:52:16.688Z,30.25
2017-04-09T03:53:16.639Z,30.73
2017-04-09T03:54:16.650Z,30.63
2017-04-09T03:55:16.654Z,30.35
2017-04-09T03:56:16.655Z,30.25
2017-04-09T03:57:16.700Z,30.73
2017-04-09T03:58:16.676Z,30.44
2017-04-09T03:59:16.410Z,30.63
2017-04-09T04:00:16.743Z,30.54
2017-04-09T04:01:16.744Z,30.83
2017-04-09T04:02:16.697Z,30.73
2017-04-09T04:03:16.701Z,30.54
2017-04-09T04:04:16.711Z,30.54
2017-04-09T04:05:16.713Z,30.44
2017-04-09T04:06:16.721Z,30.35
2017-04-09T04:07:16.727Z,30.63
2017-04-09T04:08:16.801Z,30.35
2017-04-09T04:09:16.743Z,30.05
2017-04-09T04:10:16.753Z,30.15
2017-04-09T04:11:16.816Z,30.36
2017-04-09T04:12:16.765Z,30.15
2017-04-09T04:13:16.816Z,30.25
2017-04-09T04:14:16.781Z,30.46
2017-04-09T04:15:16.789Z,30.17
2017-04-09T04:16:16.795Z,30.25
2017-04-09T04:17:16.800Z,30.07
2017-04-09T04:18:16.799Z,30.17
2017-04-09T04:19:16.856Z,29.97
2017-04-09T04:20:16.864Z,30.15
2017-04-09T04:21:16.877Z,30.15
2017-04-09T04:22:16.834Z,30.07
2017-04-09T04:23:16.843Z,29.88
2017-04-09T04:24:16.886Z,30.17
2017-04-09T04:25:16.853Z,30.05
2017-04-09T04:26:16.539Z,30.05
2017-04-09T04:27:16.910Z,29.88
2017-04-09T04:28:16.916Z,29.88
2017-04-09T04:29:16.562Z,29.78
2017-04-09T04:30:16.925Z,29.97
2017-04-09T04:31:16.574Z,30.27
2017-04-09T04:32:16.936Z,29.78
2017-04-09T04:33:16.898Z,29.88
2017-04-09T04:34:16.910Z,30.07
2017-04-09T04:35:16.913Z,29.88
2017-04-09T04:36:16.971Z,29.88
2017-04-09T04:37:16.613Z,30.17
2017-04-09T04:38:16.933Z,30.05
2017-04-09T04:39:16.940Z,30.17
2017-04-09T04:40:16.682Z,29.88
2017-04-09T04:41:16.952Z,29.88
2017-04-09T04:42:16.954Z,29.86
2017-04-09T04:43:16.966Z,29.97
2017-04-09T04:44:16.977Z,29.78
2017-04-09T04:45:16.666Z,30.46
2017-04-09T04:46:16.717Z,29.88
2017-04-09T04:47:17.038Z,30.07
2017-04-09T04:48:16.996Z,30.44
2017-04-09T04:49:17.003Z,29.78
2017-04-09T04:50:16.754Z,30.46
2017-04-09T04:51:16.708Z,30.07
2017-04-09T04:52:17.385Z,30.27
2017-04-09T04:53:16.709Z,29.88
2017-04-09T04:54:17.082Z,30.07
2017-04-09T04:55:16.725Z,29.97
2017-04-09T04:56:17.098Z,30.17
2017-04-09T04:57:16.784Z,30.27
2017-04-09T04:58:17.060Z,29.78
2017-04-09T04:59:17.125Z,29.78
2017-04-09T05:00:17.079Z,29.88
2017-04-09T05:01:17.128Z,29.97
2017-04-09T05:02:17.083Z,29.88
2017-04-09T05:03:17.089Z,29.88
2017-04-09T05:04:17.099Z,30.27
2017-04-09T05:05:17.111Z,29.88
2017-04-09T05:06:17.170Z,30.27
2017-04-09T05:07:17.166Z,30.17
2017-04-09T05:08:17.173Z,29.88
2017-04-09T05:09:17.180Z,29.88
2017-04-09T05:10:17.191Z,30.07
2017-04-09T05:11:17.191Z,30.07
2017-04-09T05:12:17.199Z,30.17
2017-04-09T05:13:17.217Z,30.17
2017-04-09T05:14:17.219Z,29.97
2017-04-09T05:15:17.221Z,29.69
2017-04-09T05:16:17.735Z,30.07
2017-04-09T05:17:17.239Z,29.78
2017-04-09T05:18:17.190Z,30.07
2017-04-09T05:19:17.201Z,29.97
2017-04-09T05:20:17.208Z,30.17
2017-04-09T05:21:17.272Z,30.17
2017-04-09T05:22:17.221Z,29.59
2017-04-09T05:23:17.273Z,29.69
2017-04-09T05:24:16.969Z,29.49
2017-04-09T05:25:17.338Z,29.69
2017-04-09T05:26:17.237Z,29.59
2017-04-09T05:27:17.299Z,29.3
2017-04-09T05:28:17.316Z,29.39
2017-04-09T05:29:17.264Z,29.39
2017-04-09T05:30:17.315Z,29.6
2017-04-09T05:31:17.274Z,29.49
2017-04-09T05:32:17.382Z,29.39
2017-04-09T05:33:17.433Z,29.2
2017-04-09T05:34:17.300Z,29.3
2017-04-09T05:35:17.307Z,29.49
2017-04-09T05:36:17.318Z,29.01
2017-04-09T05:37:17.001Z,29.01
2017-04-09T05:38:17.768Z,29.02
2017-04-09T05:39:17.326Z,29.39
2017-04-09T05:40:17.393Z,29.39
2017-04-09T05:41:17.390Z,29.49
2017-04-09T05:42:17.653Z,29.02
2017-04-09T05:43:17.048Z,29.02
2017-04-09T05:44:17.362Z,29.02
2017-04-09T05:45:17.414Z,29.22
2017-04-09T05:46:17.367Z,29.02
2017-04-09T05:47:17.374Z,29.01
2017-04-09T05:48:17.383Z,29.02
2017-04-09T05:49:17.452Z,29.22
2017-04-09T05:50:17.396Z,29.12
2017-04-09T05:51:17.451Z,29.22
2017-04-09T05:52:17.095Z,29.22
2017-04-09T05:53:17.415Z,29.22
2017-04-09T05:54:17.475Z,28.73
2017-04-09T05:55:17.436Z,28.92
2017-04-09T05:56:17.444Z,29.02
2017-04-09T05:57:17.446Z,29.12
2017-04-09T05:58:17.506Z,29.02
2017-04-09T05:59:17.508Z,29.02
2017-04-09T06:00:17.465Z,28.83
2017-04-09T06:01:17.478Z,29.02
2017-04-09T06:02:17.476Z,28.54
2017-04-09T06:03:17.546Z,28.83
2017-04-09T06:04:17.555Z,28.92
2017-04-09T06:05:17.500Z,28.64
2017-04-09T06:06:17.505Z,28.73
2017-04-09T06:07:17.200Z,28.73
2017-04-09T06:08:17.521Z,28.94
2017-04-09T06:09:17.537Z,28.64
2017-04-09T06:10:17.580Z,28.85
2017-04-09T06:11:17.548Z,28.92
2017-04-09T06:12:17.645Z,28.65
2017-04-09T06:13:17.554Z,28.65
2017-04-09T06:14:17.620Z,28.65
2017-04-09T06:15:17.578Z,28.73
2017-04-09T06:16:17.577Z,28.36
2017-04-09T06:17:17.572Z,28.07
2017-04-09T06:18:17.636Z,27.97
2017-04-09T06:19:17.597Z,28.36
2017-04-09T06:20:17.659Z,28.36
2017-04-09T06:21:17.617Z,28.17
2017-04-09T06:22:17.669Z,28.26
2017-04-09T06:23:17.675Z,27.87
2017-04-09T06:24:17.633Z,27.79
2017-04-09T06:25:17.645Z,27.7
2017-04-09T06:26:17.650Z,27.79
2017-04-09T06:27:17.343Z,27.79
2017-04-09T06:28:17.710Z,27.5
2017-04-09T06:29:17.668Z,27.98
2017-04-09T06:30:17.671Z,27.31
2017-04-09T06:31:17.680Z,27.79
2017-04-09T06:32:17.702Z,27.4
2017-04-09T06:33:17.894Z,26.84
2017-04-09T06:34:17.717Z,27.03
2017-04-09T06:35:17.721Z,26.46
2017-04-09T06:36:17.508Z,26.27
2017-04-09T06:37:17.827Z,25.78
2017-04-09T06:38:17.740Z,25.51
2017-04-09T06:39:17.792Z,25.32
2017-04-09T06:40:17.753Z,24.65
2017-04-09T06:41:17.491Z,24.66
2017-04-09T06:42:17.768Z,24.07
2017-04-09T06:43:17.839Z,23.41
2017-04-09T06:44:17.784Z,23.22
2017-04-09T06:45:17.845Z,23.03
2017-04-09T06:46:17.802Z,22.16
2017-04-09T06:47:17.864Z,22.07
2017-04-09T06:48:17.815Z,22.27
2017-04-09T06:49:17.825Z,22.27
2017-04-09T06:50:17.573Z,21.89
2017-04-09T06:51:17.896Z,21.6
2017-04-09T06:52:17.906Z,21.03
2017-04-09T06:53:17.856Z,20.83
2017-04-09T06:54:17.874Z,21.22
2017-04-09T06:55:17.663Z,21.03
2017-04-09T06:56:17.883Z,22.28
2017-04-09T06:57:17.899Z,24.19
2017-04-09T06:58:17.910Z,25.81
2017-04-09T06:59:17.592Z,26.37
2017-04-09T07:00:17.964Z,26.93
2017-04-09T07:01:17.933Z,27.42
2017-04-09T07:02:17.995Z,27.6
2017-04-09T07:03:17.945Z,27.01
2017-04-09T07:04:17.997Z,27.5
2017-04-09T07:05:18.005Z,27.7
2017-04-09T07:06:18.013Z,27.6
2017-04-09T07:07:18.021Z,28.08
2017-04-09T07:08:17.979Z,28.36
2017-04-09T07:09:18.050Z,28.17
2017-04-09T07:10:17.992Z,28.17
2017-04-09T07:11:17.998Z,28.26
2017-04-09T07:12:18.059Z,28.36
2017-04-09T07:13:18.068Z,28.17
2017-04-09T07:14:18.027Z,28.17
2017-04-09T07:15:18.086Z,27.78
2017-04-09T07:16:18.044Z,28.65
2017-04-09T07:17:17.789Z,28.64
2017-04-09T07:18:18.103Z,28.73
2017-04-09T07:19:18.061Z,28.73
2017-04-09T07:20:18.071Z,29.02
2017-04-09T07:21:18.126Z,28.92
2017-04-09T07:22:18.085Z,28.83
2017-04-09T07:23:18.191Z,28.83
2017-04-09T07:24:18.148Z,28.92
2017-04-09T07:25:18.159Z,28.92
2017-04-09T07:26:18.123Z,29.02
2017-04-09T07:27:17.858Z,29.12
2017-04-09T07:28:18.125Z,29.02
2017-04-09T07:29:18.142Z,29.12
2017-04-09T07:30:18.147Z,29.32
2017-04-09T07:31:19.845Z,29.22
2017-04-09T07:32:18.167Z,29.32
2017-04-09T07:33:18.171Z,29.3
2017-04-09T07:34:18.165Z,29.32
2017-04-09T07:35:17.912Z,29.01
2017-04-09T07:36:18.182Z,29.1
2017-04-09T07:37:18.241Z,29.01
2017-04-09T07:38:17.930Z,29.01
2017-04-09T07:39:18.266Z,29.49
2017-04-09T07:40:18.256Z,29.39
2017-04-09T07:41:18.213Z,29.49
2017-04-09T07:42:18.229Z,29.39
2017-04-09T07:43:18.229Z,29.3
2017-04-09T07:44:18.237Z,29.3
2017-04-09T07:45:18.247Z,29.39
2017-04-09T07:46:17.992Z,29.3
2017-04-09T07:47:18.258Z,29.39
2017-04-09T07:48:18.061Z,29.49
2017-04-09T07:49:18.824Z,29.59
2017-04-09T07:50:18.284Z,29.59
2017-04-09T07:51:18.335Z,29.49
2017-04-09T07:52:18.300Z,29.49
2017-04-09T07:53:18.305Z,29.59
2017-04-09T07:54:18.305Z,29.69
2017-04-09T07:55:18.320Z,30.17
2017-04-09T07:56:18.008Z,29.67
2017-04-09T07:57:18.325Z,29.88
2017-04-09T07:58:18.340Z,30.15
2017-04-09T07:59:18.346Z,29.38
2017-04-09T08:00:18.354Z,29.97
2017-04-09T08:01:18.352Z,29.88
2017-04-09T08:02:18.364Z,29.77
2017-04-09T08:03:18.364Z,29.86
2017-04-09T08:04:18.397Z,30.25
2017-04-09T08:05:18.436Z,30.15
2017-04-09T08:06:18.384Z,29.86
2017-04-09T08:07:18.451Z,30.15
2017-04-09T08:08:18.508Z,30.27
2017-04-09T08:09:18.466Z,30.15
2017-04-09T08:10:18.151Z,29.96
2017-04-09T08:11:18.470Z,29.67
2017-04-09T08:12:18.425Z,29.96
2017-04-09T08:13:18.541Z,30.25
2017-04-09T08:14:18.439Z,29.67
2017-04-09T08:15:18.503Z,30.44
2017-04-09T08:16:18.450Z,30.05
2017-04-09T08:17:18.515Z,30.25
2017-04-09T08:18:18.199Z,30.05
2017-04-09T08:19:18.469Z,29.86
2017-04-09T08:20:18.488Z,29.86
2017-04-09T08:21:18.494Z,29.96
2017-04-09T08:22:18.543Z,29.96
2017-04-09T08:23:18.192Z,29.77
2017-04-09T08:24:18.506Z,29.96
2017-04-09T08:25:18.517Z,29.96
2017-04-09T08:26:18.204Z,29.96
2017-04-09T08:27:18.525Z,29.67
2017-04-09T08:28:18.543Z,30.25
2017-04-09T08:29:18.543Z,29.86
2017-04-09T08:30:18.553Z,30.15
2017-04-09T08:31:18.608Z,30.35
2017-04-09T08:32:18.572Z,29.86
2017-04-09T08:33:18.304Z,30.05
2017-04-09T08:34:18.575Z,27.26
2017-04-09T08:35:18.609Z,23.18
2017-04-09T08:36:18.601Z,20.34
2017-04-09T08:37:18.593Z,19.01
2017-04-09T08:38:18.599Z,18.35
2017-04-09T08:39:18.910Z,18.16
2017-04-09T08:40:18.663Z,17.78
2017-04-09T08:41:18.621Z,17.88
2017-04-09T08:42:18.632Z,18.16
2017-04-09T08:43:18.682Z,17.97
2017-04-09T08:44:18.698Z,18.36
2017-04-09T08:45:18.647Z,18.25
2017-04-09T08:46:18.653Z,18.74
2017-04-09T08:47:18.664Z,19.51
2017-04-09T08:48:18.709Z,20.38
2017-04-09T08:49:18.682Z,22.1
2017-04-09T08:50:18.694Z,24.49
2017-04-09T08:51:18.699Z,26.09
2017-04-09T08:52:18.705Z,27.32
2017-04-09T08:53:18.492Z,27.7
2017-04-09T08:54:18.709Z,27.49
2017-04-09T08:55:18.460Z,28.36
2017-04-09T08:56:18.734Z,28.17
2017-04-09T08:57:18.781Z,27.76
2017-04-09T08:58:18.788Z,28.64
2017-04-09T08:59:20.149Z,29.12
2017-04-09T09:00:18.810Z,28.92
2017-04-09T09:01:18.445Z,29.01
2017-04-09T09:02:18.766Z,29.01
2017-04-09T09:03:18.881Z,29.39
2017-04-09T09:04:18.787Z,29.2
2017-04-09T09:05:18.482Z,29.01
2017-04-09T09:06:18.848Z,29.1
2017-04-09T09:07:18.850Z,28.91
2017-04-09T09:08:18.493Z,29.01
2017-04-09T09:09:18.870Z,29.01
2017-04-09T09:10:18.887Z,28.91
2017-04-09T09:11:18.844Z,29.49
2017-04-09T09:12:18.850Z,29.39
2017-04-09T09:13:18.898Z,29.49
2017-04-09T09:14:19.046Z,29.49
2017-04-09T09:15:18.863Z,29.59
2017-04-09T09:16:18.864Z,29.3
2017-04-09T09:17:18.607Z,29.47
2017-04-09T09:18:18.617Z,29.49
2017-04-09T09:19:18.894Z,29.49
2017-04-09T09:20:18.639Z,29.57
2017-04-09T09:21:18.905Z,30.17
2017-04-09T09:22:19.259Z,29.96
2017-04-09T09:23:18.915Z,29.96
2017-04-09T09:24:18.610Z,29.59
2017-04-09T09:25:18.987Z,29.86
2017-04-09T09:26:18.628Z,30.25
2017-04-09T09:27:18.949Z,30.05
2017-04-09T09:28:19.048Z,30.25
2017-04-09T09:29:18.958Z,29.86
2017-04-09T09:30:19.019Z,30.15
2017-04-09T09:31:18.970Z,29.86
2017-04-09T09:32:19.081Z,30.15
2017-04-09T09:33:18.996Z,29.86
2017-04-09T09:34:18.989Z,29.96
2017-04-09T09:35:18.998Z,29.86
2017-04-09T09:36:19.013Z,29.67
2017-04-09T09:37:19.018Z,30.44
2017-04-09T09:38:19.067Z,30.05
2017-04-09T09:39:19.077Z,29.96
2017-04-09T09:40:19.134Z,30.05
2017-04-09T09:41:19.037Z,29.96
2017-04-09T09:42:19.049Z,30.05
2017-04-09T09:43:19.050Z,30.25
2017-04-09T09:44:19.158Z,30.15
2017-04-09T09:45:19.815Z,30.05
2017-04-09T09:46:19.123Z,30.25
2017-04-09T09:47:19.088Z,30.05
2017-04-09T09:48:19.093Z,30.25
2017-04-09T09:49:19.090Z,30.05
2017-04-09T09:50:19.149Z,30.15
2017-04-09T09:51:19.159Z,30.25
2017-04-09T09:52:19.113Z,30.25
2017-04-09T09:53:18.813Z,29.96
2017-04-09T09:54:19.179Z,30.15
2017-04-09T09:55:19.447Z,30.33
2017-04-09T09:56:19.140Z,30.44
2017-04-09T09:57:19.198Z,30.35
2017-04-09T09:58:19.158Z,30.24
2017-04-09T09:59:19.226Z,30.43
2017-04-09T10:00:19.168Z,30.44
2017-04-09T10:01:19.236Z,30.25
2017-04-09T10:02:19.233Z,30.52
2017-04-09T10:03:19.190Z,30.52
2017-04-09T10:04:19.194Z,30.44
2017-04-09T10:05:19.223Z,30.43
2017-04-09T10:06:19.210Z,30.24
2017-04-09T10:07:19.267Z,30.52
2017-04-09T10:08:19.224Z,30.83
2017-04-09T10:09:19.280Z,30.44
2017-04-09T10:10:18.972Z,30.52
2017-04-09T10:11:18.980Z,30.44
2017-04-09T10:12:19.302Z,30.82
2017-04-09T10:13:19.310Z,30.33
2017-04-09T10:14:19.504Z,30.62
2017-04-09T10:15:19.278Z,30.62
2017-04-09T10:16:19.328Z,30.43
2017-04-09T10:17:19.293Z,30.62
2017-04-09T10:18:19.296Z,30.82
2017-04-09T10:19:19.409Z,30.62
2017-04-09T10:20:19.039Z,30.43
2017-04-09T10:21:19.313Z,30.72
2017-04-09T10:22:19.374Z,30.91
2017-04-09T10:23:19.325Z,30.72
2017-04-09T10:24:19.343Z,30.91
2017-04-09T10:25:19.345Z,30.82
2017-04-09T10:26:19.353Z,30.82
2017-04-09T10:27:19.359Z,30.82
2017-04-09T10:28:19.366Z,30.72
2017-04-09T10:29:19.366Z,30.72
2017-04-09T10:30:19.379Z,30.72
2017-04-09T10:31:19.380Z,30.91
2017-04-09T10:32:19.437Z,30.82
2017-04-09T10:33:19.450Z,30.72
2017-04-09T10:34:19.085Z,31.1
2017-04-09T10:35:19.456Z,30.91
2017-04-09T10:36:19.418Z,30.82
2017-04-09T10:37:19.420Z,30.62
2017-04-09T10:38:19.440Z,31.01
2017-04-09T10:39:19.484Z,31.1
2017-04-09T10:40:19.450Z,31.01
2017-04-09T10:41:19.460Z,31.01
2017-04-09T10:42:19.459Z,31.01
2017-04-09T10:43:19.154Z,31.01
2017-04-09T10:44:19.520Z,31.1
2017-04-09T10:45:19.574Z,31.01
2017-04-09T10:46:19.530Z,30.91
2017-04-09T10:47:19.488Z,31.1
2017-04-09T10:48:19.503Z,31.1
2017-04-09T10:49:19.552Z,31.01
2017-04-09T10:50:19.559Z,31.01
2017-04-09T10:51:19.523Z,31.2
2017-04-09T10:52:19.525Z,31.01
2017-04-09T10:53:19.267Z,30.99
2017-04-09T10:54:19.544Z,31.1
2017-04-09T10:55:19.226Z,31.1
2017-04-09T10:56:19.599Z,31.3
2017-04-09T10:57:19.557Z,30.91
2017-04-09T10:58:19.620Z,31.1
2017-04-09T10:59:19.622Z,31.3
2017-04-09T11:00:19.579Z,31.28
2017-04-09T11:01:19.596Z,31.28
2017-04-09T11:02:19.588Z,31.38
2017-04-09T11:03:19.606Z,31.38
2017-04-09T11:04:19.656Z,31.18
2017-04-09T11:05:19.658Z,31.48
2017-04-09T11:06:19.621Z,31.28
2017-04-09T11:07:19.629Z,31.28
2017-04-09T11:08:19.678Z,31.38
2017-04-09T11:09:19.686Z,31.28
2017-04-09T11:10:19.639Z,31.28
2017-04-09T11:11:19.701Z,31.28
2017-04-09T11:12:19.660Z,31.28
2017-04-09T11:13:19.713Z,31.38
2017-04-09T11:14:19.726Z,31.38
2017-04-09T11:15:19.677Z,31.38
2017-04-09T11:16:19.738Z,31.38
2017-04-09T11:17:19.739Z,31.18
2017-04-09T11:18:19.693Z,31.57
2017-04-09T11:19:19.707Z,31.4
2017-04-09T11:20:19.394Z,31.38
2017-04-09T11:21:19.764Z,31.38
2017-04-09T11:22:19.779Z,31.28
2017-04-09T11:23:19.782Z,31.38
2017-04-09T11:24:19.746Z,31.38
2017-04-09T11:25:19.793Z,31.28
2017-04-09T11:26:19.441Z,31.48
2017-04-09T11:27:19.810Z,31.38
2017-04-09T11:28:19.775Z,31.48
2017-04-09T11:29:19.472Z,31.38
2017-04-09T11:30:19.826Z,31.38
2017-04-09T11:31:19.787Z,31.48
2017-04-09T11:32:19.896Z,31.48
2017-04-09T11:33:19.809Z,31.38
2017-04-09T11:34:19.545Z,31.48
2017-04-09T11:35:19.863Z,31.67
2017-04-09T11:36:19.872Z,31.57
2017-04-09T11:37:19.880Z,31.57
2017-04-09T11:38:19.887Z,31.48
2017-04-09T11:39:19.848Z,31.57
2017-04-09T11:40:19.534Z,31.57
2017-04-09T11:41:19.850Z,31.57
2017-04-09T11:42:19.916Z,31.48
2017-04-09T11:43:19.862Z,31.48
2017-04-09T11:44:19.874Z,31.57
2017-04-09T11:45:19.874Z,31.38
2017-04-09T11:46:19.937Z,31.48
2017-04-09T11:47:19.889Z,31.57
2017-04-09T11:48:19.959Z,31.67
2017-04-09T11:49:19.906Z,31.76
2017-04-09T11:50:19.909Z,31.57
2017-04-09T11:51:19.920Z,31.67
2017-04-09T11:52:21.183Z,31.67
2017-04-09T11:53:19.978Z,31.67
2017-04-09T11:54:19.677Z,31.67
2017-04-09T11:55:19.626Z,31.67
2017-04-09T11:56:19.955Z,31.76
2017-04-09T11:57:19.960Z,31.67
2017-04-09T11:58:20.017Z,31.67
2017-04-09T11:59:20.020Z,31.76
2017-04-09T12:00:19.708Z,31.67
2017-04-09T12:01:19.666Z,31.67
2017-04-09T12:02:20.050Z,31.76
2017-04-09T12:03:20.004Z,31.85
2017-04-09T12:04:20.007Z,31.86
2017-04-09T12:05:20.007Z,31.75
2017-04-09T12:06:19.758Z,31.96
2017-04-09T12:07:20.071Z,31.76
2017-04-09T12:08:20.029Z,31.85
2017-04-09T12:09:20.036Z,31.85
2017-04-09T12:10:20.048Z,31.85
2017-04-09T12:11:20.044Z,31.65
2017-04-09T12:12:20.162Z,31.76
2017-04-09T12:13:20.113Z,31.75
2017-04-09T12:14:20.072Z,31.85
2017-04-09T12:15:20.077Z,31.67
2017-04-09T12:16:20.138Z,31.75
2017-04-09T12:17:20.084Z,31.76
2017-04-09T12:18:20.095Z,31.75
2017-04-09T12:19:20.135Z,31.96
2017-04-09T12:20:19.794Z,31.75
2017-04-09T12:21:20.112Z,31.86
2017-04-09T12:22:20.118Z,31.75
2017-04-09T12:23:20.177Z,31.76
2017-04-09T12:24:19.867Z,31.75
2017-04-09T12:25:20.139Z,31.86
2017-04-09T12:26:20.510Z,31.75
2017-04-09T12:27:20.152Z,31.86
2017-04-09T12:28:20.165Z,31.75
2017-04-09T12:29:20.164Z,31.76
2017-04-09T12:30:20.226Z,31.86
2017-04-09T12:31:21.219Z,31.86
2017-04-09T12:32:19.870Z,31.86
2017-04-09T12:33:21.087Z,31.94
2017-04-09T12:34:20.197Z,31.76
2017-04-09T12:35:19.942Z,31.85
2017-04-09T12:36:19.897Z,31.75
2017-04-09T12:37:20.216Z,31.86
2017-04-09T12:38:20.233Z,31.96
2017-04-09T12:39:20.281Z,31.85
2017-04-09T12:40:19.970Z,31.94
2017-04-09T12:41:20.253Z,31.94
2017-04-09T12:42:20.250Z,32.04
2017-04-09T12:43:20.267Z,31.94
2017-04-09T12:44:19.954Z,31.96
2017-04-09T12:45:20.323Z,32.04
2017-04-09T12:46:20.278Z,32.14
2017-04-09T12:47:20.336Z,31.94
2017-04-09T12:48:20.346Z,32.04
2017-04-09T12:49:20.303Z,31.94
2017-04-09T12:50:20.301Z,32.04
2017-04-09T12:51:20.309Z,31.94
2017-04-09T12:52:20.315Z,31.85
2017-04-09T12:53:20.427Z,32.04
2017-04-09T12:54:20.328Z,31.85